createdAt,value
2022-12-19T00:01:57.809Z,4.80
2022-12-19T00:04:30.368Z,4.70
2022-12-19T00:06:59.241Z,4.60
2022-12-19T00:09:29.486Z,4.60
2022-12-19T00:11:59.156Z,4.70
2022-12-19T00:14:26.671Z,4.50
2022-12-19T00:16:55.641Z,4.40
2022-12-19T00:19:23.061Z,4.50
2022-12-19T00:21:50.473Z,4.50
2022-12-19T00:24:20.585Z,4.40
2022-12-19T00:26:49.327Z,4.40
2022-12-19T00:29:16.676Z,4.40
2022-12-19T00:31:45.008Z,4.50
2022-12-19T00:34:12.477Z,4.40
2022-12-19T00:36:40.804Z,4.40
2022-12-19T00:39:10.884Z,4.20
2022-12-19T00:41:41.989Z,4.10
2022-12-19T00:44:16.037Z,4.10
2022-12-19T00:46:45.183Z,4.10
2022-12-19T00:49:21.058Z,4.00
2022-12-19T00:51:48.199Z,4.00
2022-12-19T00:54:15.635Z,3.90
2022-12-19T00:56:43.155Z,4.10
2022-12-19T00:59:10.988Z,4.10
2022-12-19T01:01:41.518Z,4.10
2022-12-19T01:04:38.246Z,4.00
2022-12-19T01:07:07.791Z,4.00
2022-12-19T01:09:36.728Z,4.00
2022-12-19T01:12:25.183Z,3.90
2022-12-19T01:14:54.677Z,3.80
2022-12-19T01:17:28.222Z,3.80
2022-12-19T01:19:55.478Z,3.90
2022-12-19T01:22:22.595Z,3.80
2022-12-19T01:24:49.858Z,3.90
2022-12-19T01:27:17.195Z,3.90
2022-12-19T01:29:52.192Z,3.90
2022-12-19T01:32:21.332Z,3.90
2022-12-19T01:34:50.750Z,3.80
2022-12-19T01:37:19.284Z,3.80
2022-12-19T01:39:47.076Z,3.70
2022-12-19T01:42:23.349Z,3.50
2022-12-19T01:45:13.793Z,3.50
2022-12-19T01:48:19.305Z,3.50
2022-12-19T01:51:01.480Z,3.60
2022-12-19T01:53:48.810Z,3.70
2022-12-19T01:56:20.065Z,3.70
2022-12-19T01:58:48.138Z,3.60
2022-12-19T02:01:17.898Z,3.60
2022-12-19T02:03:46.325Z,3.50
2022-12-19T02:06:15.033Z,3.50
2022-12-19T02:08:44.957Z,3.50
2022-12-19T02:11:12.705Z,3.50
2022-12-19T02:13:41.053Z,3.50
2022-12-19T02:16:37.653Z,3.60
2022-12-19T02:19:52.628Z,3.60
2022-12-19T02:22:40.837Z,3.60
2022-12-19T02:25:10.831Z,3.60
2022-12-19T02:27:56.542Z,3.50
2022-12-19T02:30:56.952Z,3.30
2022-12-19T02:33:38.368Z,3.30
2022-12-19T02:36:17.803Z,3.30
2022-12-19T02:39:14.542Z,3.20
2022-12-19T02:41:45.261Z,3.30
2022-12-19T02:44:24.171Z,3.40
2022-12-19T02:46:53.196Z,3.50
2022-12-19T02:49:26.850Z,3.40
2022-12-19T02:51:58.441Z,3.40
2022-12-19T02:54:25.737Z,3.40
2022-12-19T02:57:06.614Z,3.40
2022-12-19T03:00:02.943Z,3.40
2022-12-19T03:03:00.749Z,3.40
2022-12-19T03:05:34.503Z,3.40
2022-12-19T03:08:22.370Z,3.20
2022-12-19T03:11:00.403Z,3.20
2022-12-19T03:14:00.285Z,3.30
2022-12-19T03:16:28.331Z,3.40
2022-12-19T03:18:56.636Z,3.40
2022-12-19T03:21:37.256Z,3.30
2022-12-19T03:24:05.444Z,3.20
2022-12-19T03:26:38.011Z,3.20
2022-12-19T03:29:27.609Z,3.20
2022-12-19T03:31:57.323Z,3.20
2022-12-19T03:34:36.522Z,3.20
2022-12-19T03:37:08.159Z,3.20
2022-12-19T03:39:35.962Z,3.20
2022-12-19T03:42:23.699Z,3.20
2022-12-19T03:44:53.867Z,3.20
2022-12-19T03:47:49.480Z,3.10
2022-12-19T03:50:17.249Z,3.20
2022-12-19T03:53:22.696Z,3.10
2022-12-19T03:56:04.667Z,3.10
2022-12-19T03:58:37.826Z,3.10
2022-12-19T04:01:07.185Z,3.10
2022-12-19T04:03:34.600Z,3.10
2022-12-19T04:06:05.063Z,3.10
2022-12-19T04:08:33.098Z,3.10
2022-12-19T04:11:06.473Z,3.00
2022-12-19T04:13:38.994Z,3.00
2022-12-19T04:16:18.881Z,3.00
2022-12-19T04:18:53.930Z,3.00
2022-12-19T04:21:33.039Z,3.00
2022-12-19T04:24:12.282Z,3.00
2022-12-19T04:26:43.698Z,3.00
2022-12-19T04:29:12.957Z,3.00
2022-12-19T04:31:41.433Z,3.00
2022-12-19T04:34:08.912Z,2.90
2022-12-19T04:36:36.357Z,2.90
2022-12-19T04:39:04.251Z,2.90
2022-12-19T04:41:31.822Z,2.90
2022-12-19T04:43:59.067Z,3.00
2022-12-19T04:46:26.392Z,2.90
2022-12-19T04:48:53.804Z,2.90
2022-12-19T04:51:21.578Z,2.90
2022-12-19T04:53:48.989Z,2.90
2022-12-19T04:56:16.420Z,2.90
2022-12-19T04:58:43.632Z,2.90
2022-12-19T05:01:14.023Z,2.80
2022-12-19T05:03:41.778Z,2.80
2022-12-19T05:06:13.665Z,2.80
2022-12-19T05:08:43.367Z,2.80
2022-12-19T05:11:19.483Z,2.80
2022-12-19T05:13:50.262Z,2.80
2022-12-19T05:16:18.014Z,2.70
2022-12-19T05:18:45.362Z,2.70
2022-12-19T05:21:13.439Z,2.70
2022-12-19T05:23:40.906Z,2.70
2022-12-19T05:26:09.140Z,2.70
2022-12-19T05:28:36.437Z,2.70
2022-12-19T05:31:12.166Z,2.70
2022-12-19T05:33:41.208Z,2.70
2022-12-19T05:36:09.970Z,2.60
2022-12-19T05:38:37.743Z,2.70
2022-12-19T05:41:13.443Z,2.70
2022-12-19T05:43:41.049Z,2.70
2022-12-19T05:46:08.505Z,2.70
2022-12-19T05:48:37.054Z,2.70
2022-12-19T05:51:04.888Z,2.70
2022-12-19T05:53:32.557Z,2.70
2022-12-19T05:56:06.656Z,2.70
2022-12-19T05:58:37.245Z,2.90
2022-12-19T06:01:20.182Z,3.10
2022-12-19T06:03:48.316Z,3.10
2022-12-19T06:06:18.756Z,3.10
2022-12-19T06:08:47.386Z,3.00
2022-12-19T06:11:15.254Z,2.90
2022-12-19T06:13:42.803Z,2.90
2022-12-19T06:16:15.656Z,2.90
2022-12-19T06:18:45.325Z,3.00
2022-12-19T06:21:20.297Z,2.90
2022-12-19T06:23:48.209Z,2.90
2022-12-19T06:26:20.130Z,2.90
2022-12-19T06:28:49.316Z,2.90
2022-12-19T06:31:24.688Z,2.80
2022-12-19T06:33:54.031Z,2.90
2022-12-19T06:36:27.331Z,2.90
2022-12-19T06:38:58.235Z,2.90
2022-12-19T06:41:44.326Z,2.90
2022-12-19T06:44:14.136Z,3.00
2022-12-19T06:46:42.311Z,3.20
2022-12-19T06:49:10.790Z,3.30
2022-12-19T06:51:49.604Z,3.40
2022-12-19T06:54:16.842Z,3.50
2022-12-19T06:56:44.632Z,3.60
2022-12-19T06:59:19.574Z,3.50
2022-12-19T07:02:23.868Z,3.40
2022-12-19T07:05:05.762Z,3.40
2022-12-19T07:07:35.472Z,3.40
2022-12-19T07:10:07.941Z,3.40
2022-12-19T07:12:45.162Z,3.30
2022-12-19T07:15:12.493Z,3.40
2022-12-19T07:17:40.710Z,3.30
2022-12-19T07:20:08.447Z,3.10
2022-12-19T07:22:37.182Z,3.20
2022-12-19T07:25:07.429Z,3.30
2022-12-19T07:27:36.357Z,3.30
2022-12-19T07:30:06.733Z,3.40
2022-12-19T07:32:34.669Z,3.50
2022-12-19T07:35:06.454Z,3.50
2022-12-19T07:37:33.688Z,3.60
2022-12-19T07:40:04.774Z,3.60
2022-12-19T07:42:33.059Z,3.60
2022-12-19T07:45:01.765Z,3.60
2022-12-19T07:47:53.062Z,3.60
2022-12-19T07:50:34.095Z,3.60
2022-12-19T07:53:04.298Z,3.70
2022-12-19T07:55:34.015Z,3.70
2022-12-19T07:58:01.181Z,3.70
2022-12-19T08:00:30.662Z,3.80
2022-12-19T08:03:00.519Z,3.80
2022-12-19T08:05:28.158Z,3.80
2022-12-19T08:07:55.567Z,3.80
2022-12-19T08:10:23.788Z,3.90
2022-12-19T08:12:51.643Z,4.10
2022-12-19T08:15:21.893Z,4.50
2022-12-19T08:18:18.032Z,4.40
2022-12-19T08:20:46.911Z,4.30
2022-12-19T08:23:15.414Z,4.40
2022-12-19T08:25:42.826Z,4.50
2022-12-19T08:28:10.193Z,4.60
2022-12-19T08:30:40.693Z,4.60
2022-12-19T08:33:08.673Z,4.70
2022-12-19T08:35:40.706Z,4.80
2022-12-19T08:38:10.444Z,4.90
2022-12-19T08:40:39.585Z,4.80
2022-12-19T08:43:08.828Z,4.80
2022-12-19T08:45:38.679Z,4.70
2022-12-19T08:48:06.724Z,4.70
2022-12-19T08:50:51.492Z,4.90
2022-12-19T08:53:25.807Z,5.10
2022-12-19T08:56:08.865Z,5.00
2022-12-19T08:58:36.685Z,4.90
2022-12-19T09:01:09.105Z,5.00
2022-12-19T09:04:04.622Z,5.10
2022-12-19T09:06:24.955Z,5.20
2022-12-19T09:08:52.650Z,5.20
2022-12-19T09:11:21.801Z,5.30
2022-12-19T09:13:50.174Z,5.50
2022-12-19T09:16:20.447Z,5.70
2022-12-19T09:18:54.826Z,5.60
2022-12-19T09:21:30.332Z,5.50
2022-12-19T09:24:07.902Z,5.60
2022-12-19T09:26:37.403Z,5.70
2022-12-19T09:29:11.089Z,5.90
2022-12-19T09:31:55.806Z,5.90
2022-12-19T09:34:33.240Z,6.00
2022-12-19T09:37:04.551Z,6.20
2022-12-19T09:39:31.793Z,6.20
2022-12-19T09:42:12.633Z,6.10
2022-12-19T09:44:54.726Z,6.20
2022-12-19T09:47:33.430Z,6.40
2022-12-19T09:50:02.174Z,6.20
2022-12-19T09:52:47.183Z,6.20
2022-12-19T09:55:44.073Z,6.40
2022-12-19T09:58:37.956Z,6.60
2022-12-19T10:01:18.092Z,6.70
2022-12-19T10:03:55.482Z,6.70
2022-12-19T10:07:04.102Z,6.80
2022-12-19T10:11:27.000Z,7.00
2022-12-19T10:12:44.698Z,7.30
2022-12-19T10:15:11.230Z,7.50
2022-12-19T10:17:58.937Z,7.50
2022-12-19T10:20:35.295Z,7.20
2022-12-19T10:23:22.909Z,7.30
2022-12-19T10:26:29.899Z,7.30
2022-12-19T10:29:00.331Z,7.60
2022-12-19T10:31:54.494Z,7.60
2022-12-19T10:34:25.129Z,7.80
2022-12-19T10:37:24.339Z,7.60
2022-12-19T10:39:58.008Z,7.50
2022-12-19T10:42:37.019Z,7.60
2022-12-19T10:45:21.013Z,7.90
2022-12-19T10:47:55.788Z,8.40
2022-12-19T10:50:32.621Z,8.50
2022-12-19T10:53:11.433Z,8.30
2022-12-19T10:55:45.891Z,8.30
2022-12-19T10:58:24.453Z,8.40
2022-12-19T11:01:14.502Z,8.90
2022-12-19T11:03:46.584Z,9.10
2022-12-19T11:06:49.262Z,9.20
2022-12-19T11:09:19.188Z,9.20
2022-12-19T11:15:18.950Z,9.20
2022-12-19T11:19:08.942Z,8.90
2022-12-19T11:26:44.829Z,9.00
2022-12-19T11:29:18.861Z,9.60
2022-12-19T11:29:54.950Z,10.20
2022-12-19T11:30:38.986Z,10.10
2022-12-19T11:33:19.261Z,9.90
2022-12-19T11:35:55.793Z,10.00
2022-12-19T11:38:49.084Z,10.30
2022-12-19T11:41:48.141Z,10.30
2022-12-19T11:44:55.274Z,10.30
2022-12-19T11:47:25.523Z,10.20
2022-12-19T11:50:13.859Z,10.40
2022-12-19T11:53:05.115Z,10.90
2022-12-19T11:55:48.171Z,11.20
2022-12-19T11:58:17.502Z,11.20
2022-12-19T12:01:04.370Z,11.20
2022-12-19T12:04:04.330Z,11.40
2022-12-19T12:06:50.463Z,11.20
2022-12-19T12:14:33.749Z,10.60
2022-12-19T12:22:01.906Z,10.70
2022-12-19T12:26:07.277Z,10.70
2022-12-19T12:31:10.064Z,11.00
2022-12-19T12:31:22.532Z,10.90
2022-12-19T12:31:29.545Z,11.00
2022-12-19T12:32:05.785Z,10.90
2022-12-19T12:35:34.977Z,10.80
2022-12-19T12:35:52.362Z,10.70
2022-12-19T12:38:33.350Z,11.00
2022-12-19T12:41:19.028Z,11.10
2022-12-19T12:44:12.051Z,11.30
2022-12-19T12:46:49.915Z,11.70
2022-12-19T12:49:34.939Z,12.20
2022-12-19T12:52:07.946Z,12.60
2022-12-19T12:54:39.545Z,12.20
2022-12-19T12:57:07.067Z,11.90
2022-12-19T12:59:34.336Z,11.80
2022-12-19T13:02:19.226Z,11.80
2022-12-19T13:04:59.873Z,11.60
2022-12-19T13:07:54.963Z,11.60
2022-12-19T13:10:28.962Z,11.60
2022-12-19T13:13:16.519Z,11.70
2022-12-19T13:15:46.833Z,12.00
2022-12-19T13:18:28.302Z,11.90
2022-12-19T13:20:55.570Z,11.80
2022-12-19T13:23:45.748Z,11.60
2022-12-19T13:26:22.652Z,11.60
2022-12-19T13:28:50.353Z,11.40
2022-12-19T13:31:22.443Z,11.30
2022-12-19T13:33:56.565Z,11.10
2022-12-19T13:40:00.346Z,11.20
2022-12-19T13:40:10.965Z,11.20
2022-12-19T13:43:29.925Z,11.30
2022-12-19T13:46:02.883Z,11.30
2022-12-19T13:48:46.631Z,11.10
2022-12-19T13:51:14.981Z,11.00
2022-12-19T13:53:43.511Z,10.90
2022-12-19T13:56:20.099Z,10.60
2022-12-19T13:58:55.141Z,10.60
2022-12-19T14:01:35.179Z,10.60
2022-12-19T14:04:13.415Z,10.50
2022-12-19T14:06:46.540Z,10.70
2022-12-19T14:11:27.298Z,10.50
2022-12-19T14:13:58.073Z,10.30
2022-12-19T14:15:42.454Z,10.10
2022-12-19T14:18:42.732Z,10.10
2022-12-19T14:22:04.809Z,10.00
2022-12-19T14:24:23.150Z,9.90
2022-12-19T14:28:19.922Z,9.80
2022-12-19T14:30:29.806Z,9.40
2022-12-19T14:33:40.779Z,8.90
2022-12-19T14:36:07.090Z,8.70
2022-12-19T14:39:25.776Z,8.50
2022-12-19T14:42:02.107Z,8.40
2022-12-19T14:52:34.687Z,8.20
2022-12-19T14:54:06.892Z,8.10
2022-12-19T14:54:24.403Z,7.90
2022-12-19T14:57:50.727Z,7.60
2022-12-19T15:00:51.022Z,7.50
2022-12-19T15:03:22.497Z,7.50
2022-12-19T15:05:53.398Z,7.50
2022-12-19T15:10:57.259Z,7.50
2022-12-19T15:12:06.055Z,7.60
2022-12-19T15:14:51.745Z,7.70
2022-12-19T15:17:26.672Z,7.60
2022-12-19T15:19:55.302Z,7.50
2022-12-19T15:22:22.445Z,7.50
2022-12-19T15:24:49.911Z,7.60
2022-12-19T15:27:21.376Z,7.50
2022-12-19T15:29:50.742Z,7.40
2022-12-19T15:32:18.151Z,7.50
2022-12-19T15:34:51.169Z,7.50
2022-12-19T15:37:24.172Z,7.30
2022-12-19T15:39:51.515Z,7.20
2022-12-19T15:42:25.093Z,7.10
2022-12-19T15:44:55.926Z,7.10
2022-12-19T15:47:35.334Z,7.10
2022-12-19T15:50:14.222Z,7.00
2022-12-19T15:52:41.423Z,7.00
2022-12-19T15:55:15.753Z,7.00
2022-12-19T15:57:52.162Z,7.00
2022-12-19T16:00:31.223Z,7.10
2022-12-19T16:03:22.804Z,6.90
2022-12-19T16:05:53.094Z,6.90
2022-12-19T16:08:23.265Z,6.80
2022-12-19T16:11:01.166Z,6.80
2022-12-19T16:13:32.706Z,6.90
2022-12-19T16:16:00.067Z,7.00
2022-12-19T16:18:38.452Z,6.90
2022-12-19T16:21:23.599Z,6.90
2022-12-19T16:23:54.664Z,6.80
2022-12-19T16:26:41.726Z,6.80
2022-12-19T16:29:30.060Z,6.80
2022-12-19T16:31:57.900Z,6.80
2022-12-19T16:34:25.783Z,6.80
2022-12-19T16:36:53.190Z,6.90
2022-12-19T16:39:20.736Z,6.90
2022-12-19T16:41:48.066Z,6.80
2022-12-19T16:44:22.634Z,6.60
2022-12-19T16:46:53.139Z,6.30
2022-12-19T16:49:32.228Z,6.20
2022-12-19T16:52:03.360Z,6.20
2022-12-19T16:54:30.680Z,6.10
2022-12-19T16:56:58.822Z,6.20
2022-12-19T16:59:31.392Z,6.10
2022-12-19T17:02:04.964Z,6.00
2022-12-19T17:04:34.986Z,5.90
2022-12-19T17:07:11.506Z,5.90
2022-12-19T17:09:39.624Z,5.80
2022-12-19T17:12:10.690Z,5.70
2022-12-19T17:14:41.546Z,5.80
2022-12-19T17:17:17.276Z,5.80
2022-12-19T17:19:46.441Z,5.90
2022-12-19T17:22:15.984Z,5.90
2022-12-19T17:24:46.815Z,5.90
2022-12-19T17:27:14.615Z,5.80
2022-12-19T17:29:45.708Z,5.70
2022-12-19T17:32:23.292Z,5.50
2022-12-19T17:34:52.139Z,5.50
2022-12-19T17:37:19.583Z,5.50
2022-12-19T17:39:48.683Z,5.50
2022-12-19T17:42:23.171Z,5.50
2022-12-19T17:44:50.941Z,5.40
2022-12-19T17:47:19.902Z,5.50
2022-12-19T17:49:48.414Z,5.50
2022-12-19T17:52:18.854Z,5.70
2022-12-19T17:54:46.253Z,5.60
2022-12-19T17:57:18.012Z,5.60
2022-12-19T17:59:46.859Z,5.40
2022-12-19T18:02:22.576Z,5.30
2022-12-19T18:04:50.865Z,5.30
2022-12-19T18:07:22.139Z,5.30
2022-12-19T18:09:49.614Z,5.40
2022-12-19T18:12:16.945Z,5.40
2022-12-19T18:14:44.385Z,5.40
2022-12-19T18:17:22.449Z,5.40
2022-12-19T18:19:50.686Z,5.30
2022-12-19T18:22:18.339Z,5.20
2022-12-19T18:24:45.693Z,5.10
2022-12-19T18:27:13.054Z,4.90
2022-12-19T18:29:40.391Z,4.90
2022-12-19T18:32:11.868Z,4.90
2022-12-19T18:34:39.638Z,4.90
2022-12-19T18:37:13.633Z,4.80
2022-12-19T18:39:40.848Z,4.90
2022-12-19T18:42:22.035Z,4.90
2022-12-19T18:44:50.618Z,5.00
2022-12-19T18:47:23.570Z,5.00
2022-12-19T18:49:54.947Z,5.00
2022-12-19T18:52:22.024Z,5.20
2022-12-19T18:54:49.270Z,5.20
2022-12-19T18:57:16.429Z,5.20
2022-12-19T18:59:43.513Z,5.10
2022-12-19T19:02:25.370Z,5.10
2022-12-19T19:04:55.725Z,5.10
2022-12-19T19:07:23.191Z,5.00
2022-12-19T19:09:50.379Z,5.00
2022-12-19T19:12:17.440Z,5.00
2022-12-19T19:14:44.763Z,5.00
2022-12-19T19:17:32.155Z,5.00
2022-12-19T19:19:59.624Z,4.90
2022-12-19T19:22:26.945Z,4.90
2022-12-19T19:24:54.188Z,5.00
2022-12-19T19:27:21.345Z,5.00
2022-12-19T19:29:48.525Z,5.00
2022-12-19T19:32:15.644Z,5.00
2022-12-19T19:34:43.460Z,5.00
2022-12-19T19:37:13.667Z,4.90
2022-12-19T19:39:41.939Z,4.80
2022-12-19T19:42:09.280Z,4.80
2022-12-19T19:44:36.570Z,4.80
2022-12-19T19:47:03.679Z,4.80
2022-12-19T19:49:31.148Z,4.60
2022-12-19T19:52:02.533Z,4.60
2022-12-19T19:54:31.815Z,4.50
2022-12-19T19:56:59.033Z,4.50
2022-12-19T19:59:30.733Z,4.30
2022-12-19T20:01:58.634Z,4.40
2022-12-19T20:04:26.203Z,4.20
2022-12-19T20:06:55.818Z,4.20
2022-12-19T20:09:23.610Z,4.20
2022-12-19T20:11:51.136Z,4.80
2022-12-19T20:14:18.440Z,4.70
2022-12-19T20:16:47.239Z,4.50
2022-12-19T20:19:15.852Z,4.40
2022-12-19T20:21:45.279Z,4.30
2022-12-19T20:24:13.143Z,4.20
2022-12-19T20:26:40.548Z,3.90
2022-12-19T20:29:07.783Z,3.80
2022-12-19T20:31:35.111Z,4.00
2022-12-19T20:34:02.531Z,3.90
2022-12-19T20:36:29.938Z,3.90
2022-12-19T20:38:57.469Z,3.90
2022-12-19T20:41:25.281Z,3.90
2022-12-19T20:43:53.517Z,4.00
2022-12-19T20:46:23.995Z,4.00
2022-12-19T20:48:54.203Z,3.90
2022-12-19T20:51:22.898Z,3.90
2022-12-19T20:53:53.953Z,3.90
2022-12-19T20:56:26.185Z,3.80
2022-12-19T20:58:53.711Z,4.00
2022-12-19T21:01:23.530Z,4.00
2022-12-19T21:03:52.623Z,4.10
2022-12-19T21:06:22.300Z,4.10
2022-12-19T21:08:51.436Z,4.00
2022-12-19T21:11:20.350Z,4.00
2022-12-19T21:13:48.052Z,3.90
2022-12-19T21:16:43.939Z,3.50
2022-12-19T21:19:11.258Z,3.60
2022-12-19T21:21:40.214Z,3.70
2022-12-19T21:24:07.579Z,3.90
2022-12-19T21:26:34.952Z,4.00
2022-12-19T21:29:02.648Z,4.20
2022-12-19T21:31:30.875Z,4.40
2022-12-19T21:34:00.438Z,4.50
2022-12-19T21:36:30.310Z,4.40
2022-12-19T21:39:00.344Z,4.40
2022-12-19T21:41:27.852Z,4.30
2022-12-19T21:43:58.971Z,4.20
2022-12-19T21:46:28.995Z,4.20
2022-12-19T21:48:57.539Z,4.20
2022-12-19T21:51:27.905Z,4.20
2022-12-19T21:53:58.577Z,4.30
2022-12-19T21:56:33.228Z,4.20
2022-12-19T21:59:09.858Z,4.30
2022-12-19T22:01:37.348Z,4.40
2022-12-19T22:04:14.350Z,4.40
2022-12-19T22:06:41.907Z,4.30
2022-12-19T22:09:14.530Z,4.30
2022-12-19T22:11:42.059Z,4.20
2022-12-19T22:14:18.222Z,4.20
2022-12-19T22:16:45.624Z,4.10
2022-12-19T22:19:17.289Z,4.20
2022-12-19T22:21:46.860Z,4.20
2022-12-19T22:24:18.326Z,4.30
2022-12-19T22:26:46.151Z,4.20
2022-12-19T22:29:18.089Z,4.20
2022-12-19T22:31:47.122Z,4.30
2022-12-19T22:34:16.734Z,4.40
2022-12-19T22:36:47.562Z,4.40
2022-12-19T22:39:20.721Z,4.50
2022-12-19T22:41:49.104Z,4.50
2022-12-19T22:44:23.226Z,4.40
2022-12-19T22:46:51.234Z,4.30
2022-12-19T22:49:18.357Z,4.30
2022-12-19T22:51:45.556Z,4.20
2022-12-19T22:54:13.659Z,4.30
2022-12-19T22:56:41.716Z,4.40
2022-12-19T22:59:10.884Z,4.30
2022-12-19T23:01:41.285Z,4.30
2022-12-19T23:04:09.819Z,4.40
2022-12-19T23:06:37.941Z,4.40
2022-12-19T23:09:10.037Z,4.30
2022-12-19T23:11:39.265Z,4.30
2022-12-19T23:14:08.991Z,4.20
2022-12-19T23:16:36.222Z,4.10
2022-12-19T23:19:05.057Z,4.10
2022-12-19T23:21:32.366Z,4.00
2022-12-19T23:23:59.753Z,3.90
2022-12-19T23:26:30.209Z,4.00
2022-12-19T23:29:13.710Z,4.10
2022-12-19T23:31:42.818Z,4.10
2022-12-19T23:34:10.701Z,4.00
2022-12-19T23:37:09.584Z,4.10
2022-12-19T23:39:26.201Z,4.10
2022-12-19T23:41:53.462Z,4.00
2022-12-19T23:44:20.789Z,3.80
2022-12-19T23:46:47.939Z,3.80
2022-12-19T23:49:15.713Z,3.90
2022-12-19T23:51:48.736Z,3.90
2022-12-19T23:54:15.864Z,3.90
2022-12-19T23:56:43.032Z,3.90
2022-12-19T23:59:10.170Z,3.90
